Mobile, AL (36695)

12:13 AM CST on February 01, 2015 (GMT -0600)
Champion Hills S/D | Change Station
CLOSE
Current Station
Personal Weather Station
Location: Mobile, AL
Elevation: 154 ft
Nearby Weather Stations

Elev 154 ft 30.61 °N, 88.26 °W | Updated 2 minutes ago

Mostly Cloudy
Mostly Cloudy
43.6 °F
Feels Like 44 °F
N
0.0
Wind Variable Wind from SE
Gusts 0.0 mph

Today
High -- | Low -- °F
--% Chance of Precip.
Yesterday
High -- | Low -- °F
Precip. -- in
6:44 AM 5:29 PM
Waxing Gibbous, 93% visible
Pressure 30.18 in
Visibility 10.0 miles
Clouds Mostly Cloudy 2500 ft
Windchill 44 °F
Dew Point 41 °F
Humidity 92%
Rainfall 0.00 in
Snow Depth Not available.
UV 0 out of 12
Pollen 6.30 out of 12
Air Quality Not available.
Flu Activity Not available.
SPECI KMOB 010606Z AUTO 00000KT 10SM BKN025 07/06 A3018 RMK AO2 T00670056

More Conditions Fewer Conditions

Pressure 30.18 in
Visibility 10.0 miles
Clouds Mostly Cloudy 2500 ft
Windchill 44 °F
Dew Point 41 °F
Humidity 92%
Rainfall 0.00 in
Snow Depth Not available.
UV 0 out of 12
Pollen 6.30 out of 12
Air Quality Not available.
Flu Activity Not available.
SPECI KMOB 010606Z AUTO 00000KT 10SM BKN025 07/06 A3018 RMK AO2 T00670056

More Conditions Fewer Conditions

10-Day Weather Forecast

Almanac

Astronomy

Feb. 01, 2015 Rise Set
Actual Time
Civil Twilight
Nautical Twilight
Astronomical Twilight
Moon
Length of Visible Light
Length of Day
Tomorrow will be .
, % of the Moon is Illuminated

Today's Extremes

State Highs State Lows

Community

WunderPhotos

Upload Photos

1,792,322 photos uploaded!

WunderBlogs® & News

Nearby

Air Quality

  Air Quality AQ Index Pollutant
Not available.

Snow Depth

Station Depth Elevation

Earthquake Activity

City Distance Mag. Time & Date
Minimum magnitude displayed is 2.5.

Coastal Water Temperatures

Place Temperature

Nearby Weather Stations